Aérodrome :
LOGIN :

S'inscrire | Disclaimer

   EN    FR    IT 

 










Légende :    VFR   VFR Marginal   IFR   IFR Intensif   IFR Très Intensif
Visi : 
Plafond : 
>= 8 km
>= 3000ft
5 à 8 km
1000 à 3000 ft
1500m à 5 km
500 à 1000 ft
800 à 1500m
200 à 500 ft
< 800m
< 200 ft
Symboles :   Orages  Brouillard  Fortes neiges  Fortes précipitations  Vent > 20 kt
SIGMETs :   Divers  Orages  Givrage  Turbulence  Onde Orograph.  Cendres Volcan.






- Altitude de l'aérodrome : 870 ft
- Code IATA : ETZ


LFJL - Metz Nancy Lorraine

DERNIER METAR :
  • 240130Z AUTO 14005KT 4400 BR OVC005 M01/M01 Q1025 TEMPO 0500 FZFG VV///

METARs EXPIRÉS :
  • 240100Z AUTO 14006KT 5000 BR OVC006 M01/M02 Q1025 TEMPO 0500 FZFG VV///
  • 240030Z AUTO 13006KT 5000 BR OVC006 M00/M01 Q1025 TEMPO 0500 FZFG VV///
  • 240000Z AUTO 14006KT 5000 BR OVC005 M00/M01 Q1026 TEMPO 0500 FZFG VV///
  • 232330Z AUTO 12006KT 4800 BR OVC005 M01/M01 Q1026 TEMPO 0500 FZFG VV///
  • 232300Z AUTO 11008KT 5000 BR OVC005 M00/M01 Q1026 TEMPO 0500 FZFG VV///

TAF TAF LFJL
Valide du 24 à 00h jusqu'au 25 à 00h UTC


232300Z 2400/2424 10010KT 4500 BR OVC004
TEMPO 2400/2410 2000 OVC001
PROB40
TEMPO 2400/2409 0500 FZFG VV///
BECMG 2410/2413 BKN010
BECMG 2413/2415 VRB02KT CAVOK



MET'MAP, la Météo Aéronautique d'un coup d'oeil ! - Copyright ORBIFLY Décembre 2007 - Disclaimer

ORBIFLY MET'MAP TEAM :

Programmation & Développement : Alexandra Zaïnal
Sur une idée originale de : Baudouin d'Aumeries
Assistance à la programmation : Marc-Olivier Méhu
Soutien technique & logistique : Manuel Goepfert

Contact : metmap@orbifly.com




SOURCES & CREDITS :

   NOAA